Terminal Aerodrome Forecast
Issued by NWS

Home | Current Version | Previous Version | Text Only | Print | Product List | Glossary On
Versions: 1 2 3 4 5 6 7 8 9 10 11 12 13 14 15 16
405
FTUS43 KEAX 021625 AAF
TAFMKC
TAF AMD
KMKC 021625Z 0216/0312 36005KT P6SM OVC035
     FM021900 35005KT P6SM OVC045
     FM030100 35004KT P6SM SCT120=

USA.gov is the U.S. government's official web portal to all federal, state and local government web resources and services.